Lake Lotawana, Missouri
Current Conditions -  °F | °C
As of 8:54 AM on Monday 24 Nov 2014 (Local Time) from KMKC Reporting Station
Overcast Overcast  
Wind Chill: 28°   Ceiling: 3800
Heat Index: 36°   Visibility: 10mi
Dew Point: 24°   Wind: 10mph
Humidity: 62%   Direction: 270°W
Pressure: 29.7"   Gusts: 20mph
Location:  38.908°N, 94.2968°W
Report Text: KMKC 241454Z 27009G17KT 10SM OVC038 02/M04 A2970 RMK AO2 SLP062 T00221044 51029
Loading
Personal Weather Stations






























Interactive Weather Map New forecast layout! Learn more

10-Day Weather Forecast

Advertisements
Track Severe Weather on mobile